createdAt,value
2016-12-29T00:00:08.301Z,0
2016-12-29T00:01:07.961Z,0
2016-12-29T00:02:07.530Z,0
2016-12-29T00:03:07.141Z,0
2016-12-29T00:04:07.553Z,0
2016-12-29T00:05:07.966Z,0
2016-12-29T00:06:07.193Z,0
2016-12-29T00:07:07.203Z,0
2016-12-29T00:08:07.603Z,0
2016-12-29T00:09:06.836Z,0
2016-12-29T00:10:07.230Z,0
2016-12-29T00:11:06.842Z,0
2016-12-29T00:12:07.260Z,0
2016-12-29T00:13:07.665Z,0
2016-12-29T00:14:07.285Z,0
2016-12-29T00:15:08.094Z,0
2016-12-29T00:16:07.711Z,0
2016-12-29T00:17:07.723Z,0
2016-12-29T00:18:07.739Z,0
2016-12-29T00:19:07.343Z,0
2016-12-29T00:20:07.379Z,0
2016-12-29T00:21:08.168Z,0
2016-12-29T00:22:08.183Z,0
2016-12-29T00:23:07.398Z,0
2016-12-29T00:24:07.406Z,0
2016-12-29T00:25:07.421Z,0
2016-12-29T00:26:07.431Z,0
2016-12-29T00:27:07.471Z,0
2016-12-29T00:28:07.852Z,0
2016-12-29T00:29:08.297Z,0
2016-12-29T00:30:08.675Z,0
2016-12-29T00:31:07.498Z,0
2016-12-29T00:32:07.509Z,0
2016-12-29T00:33:08.320Z,0
2016-12-29T00:34:08.336Z,0
2016-12-29T00:35:07.959Z,0
2016-12-29T00:36:07.955Z,0
2016-12-29T00:37:07.967Z,0
2016-12-29T00:38:07.981Z,0
2016-12-29T00:39:08.012Z,0
2016-12-29T00:40:07.605Z,0
2016-12-29T00:41:08.014Z,0
2016-12-29T00:42:07.669Z,0
2016-12-29T00:43:07.250Z,0
2016-12-29T00:44:08.457Z,0
2016-12-29T00:45:08.066Z,0
2016-12-29T00:46:08.883Z,0
2016-12-29T00:47:08.096Z,0
2016-12-29T00:48:07.719Z,0
2016-12-29T00:49:08.534Z,0
2016-12-29T00:50:07.747Z,0
2016-12-29T00:51:07.748Z,0
2016-12-29T00:52:08.154Z,0
2016-12-29T00:53:08.165Z,0
2016-12-29T00:54:08.179Z,0
2016-12-29T00:55:08.592Z,0
2016-12-29T00:56:08.602Z,0
2016-12-29T00:57:07.435Z,0
2016-12-29T00:58:08.234Z,0
2016-12-29T00:59:08.256Z,0
2016-12-29T01:00:08.671Z,0
2016-12-29T01:01:08.280Z,0
2016-12-29T01:02:08.273Z,0
2016-12-29T01:03:08.682Z,0
2016-12-29T01:04:08.702Z,0
2016-12-29T01:05:08.321Z,0
2016-12-29T01:06:07.980Z,0
2016-12-29T01:07:08.332Z,0
2016-12-29T01:08:08.360Z,0
2016-12-29T01:09:08.366Z,0
2016-12-29T01:10:09.172Z,0
2016-12-29T01:11:07.982Z,0
2016-12-29T01:12:08.400Z,0
2016-12-29T01:13:08.819Z,0
2016-12-29T01:14:08.024Z,0
2016-12-29T01:15:08.031Z,0
2016-12-29T01:16:08.051Z,0
2016-12-29T01:17:08.454Z,0
2016-12-29T01:18:08.887Z,0
2016-12-29T01:19:08.494Z,0
2016-12-29T01:20:08.511Z,0
2016-12-29T01:21:08.503Z,0
2016-12-29T01:22:08.525Z,0
2016-12-29T01:23:08.129Z,0
2016-12-29T01:24:08.544Z,0
2016-12-29T01:25:08.173Z,0
2016-12-29T01:26:08.970Z,0
2016-12-29T01:27:08.586Z,0
2016-12-29T01:28:08.598Z,0
2016-12-29T01:29:09.003Z,0
2016-12-29T01:30:08.236Z,0
2016-12-29T01:31:07.829Z,0
2016-12-29T01:32:08.673Z,0
2016-12-29T01:33:09.048Z,0
2016-12-29T01:34:08.668Z,0
2016-12-29T01:35:08.271Z,0
2016-12-29T01:36:07.889Z,0
2016-12-29T01:37:08.698Z,0
2016-12-29T01:38:08.326Z,0
2016-12-29T01:39:08.741Z,0
2016-12-29T01:40:08.807Z,0
2016-12-29T01:41:08.353Z,0
2016-12-29T01:42:08.759Z,0
2016-12-29T01:43:08.371Z,0
2016-12-29T01:44:08.386Z,0
2016-12-29T01:45:09.191Z,0
2016-12-29T01:46:08.810Z,0
2016-12-29T01:47:08.821Z,0
2016-12-29T01:48:08.846Z,0
2016-12-29T01:49:08.448Z,0
2016-12-29T01:50:08.867Z,0
2016-12-29T01:51:08.491Z,0
2016-12-29T01:52:09.274Z,0
2016-12-29T01:53:08.893Z,0
2016-12-29T01:54:08.907Z,0
2016-12-29T01:55:08.521Z,0
2016-12-29T01:56:09.328Z,0
2016-12-29T01:57:09.337Z,0
2016-12-29T01:58:08.955Z,0
2016-12-29T01:59:08.568Z,0
2016-12-29T02:00:08.975Z,0
2016-12-29T02:01:08.994Z,0
2016-12-29T02:02:09.803Z,0
2016-12-29T02:03:09.054Z,0
2016-12-29T02:04:08.630Z,0
2016-12-29T02:05:09.039Z,0
2016-12-29T02:06:09.053Z,0
2016-12-29T02:07:09.460Z,0
2016-12-29T02:08:09.093Z,0
2016-12-29T02:09:09.097Z,0
2016-12-29T02:10:09.121Z,0
2016-12-29T02:11:09.516Z,0
2016-12-29T02:12:08.324Z,0
2016-12-29T02:13:08.338Z,0
2016-12-29T02:14:08.350Z,0
2016-12-29T02:15:08.766Z,0
2016-12-29T02:16:09.173Z,0
2016-12-29T02:17:09.185Z,0
2016-12-29T02:18:08.409Z,0
2016-12-29T02:19:08.830Z,0
2016-12-29T02:20:08.830Z,0
2016-12-29T02:21:09.630Z,0
2016-12-29T02:22:09.240Z,0
2016-12-29T02:23:09.686Z,0
2016-12-29T02:24:08.867Z,0
2016-12-29T02:25:10.079Z,0
2016-12-29T02:26:10.088Z,0
2016-12-29T02:27:09.707Z,0
2016-12-29T02:28:09.314Z,0
2016-12-29T02:29:09.324Z,0
2016-12-29T02:30:08.938Z,0
2016-12-29T02:31:08.952Z,0
2016-12-29T02:32:09.762Z,0
2016-12-29T02:33:08.975Z,0
2016-12-29T02:34:09.428Z,0
2016-12-29T02:35:09.798Z,0
2016-12-29T02:36:09.417Z,0
2016-12-29T02:37:09.019Z,0
2016-12-29T02:38:09.043Z,0
2016-12-29T02:39:08.662Z,0
2016-12-29T02:40:09.856Z,0
2016-12-29T02:41:09.469Z,0
2016-12-29T02:42:09.511Z,0
2016-12-29T02:43:09.498Z,0
2016-12-29T02:44:09.897Z,0
2016-12-29T02:45:09.122Z,0
2016-12-29T02:46:09.924Z,0
2016-12-29T02:47:09.540Z,0
2016-12-29T02:48:09.561Z,0
2016-12-29T02:49:09.169Z,0
2016-12-29T02:50:09.976Z,0
2016-12-29T02:51:09.987Z,0
2016-12-29T02:52:10.002Z,0
2016-12-29T02:53:09.216Z,0
2016-12-29T02:54:09.221Z,0
2016-12-29T02:55:10.036Z,0
2016-12-29T02:56:09.650Z,0
2016-12-29T02:57:09.272Z,0
2016-12-29T02:58:09.674Z,0
2016-12-29T02:59:10.475Z,0
2016-12-29T03:00:09.313Z,0
2016-12-29T03:01:10.505Z,0
2016-12-29T03:02:10.117Z,0
2016-12-29T03:03:09.735Z,0
2016-12-29T03:04:09.343Z,0
2016-12-29T03:05:10.171Z,0
2016-12-29T03:06:08.983Z,0
2016-12-29T03:07:09.796Z,0
2016-12-29T03:08:09.791Z,0
2016-12-29T03:09:10.204Z,0
2016-12-29T03:10:09.814Z,0
2016-12-29T03:11:09.458Z,0
2016-12-29T03:12:10.234Z,0
2016-12-29T03:13:09.856Z,0
2016-12-29T03:14:09.867Z,0
2016-12-29T03:15:09.479Z,0
2016-12-29T03:16:09.483Z,0
2016-12-29T03:17:09.529Z,0
2016-12-29T03:18:09.512Z,0
2016-12-29T03:19:09.927Z,0
2016-12-29T03:20:10.338Z,0
2016-12-29T03:21:09.949Z,0
2016-12-29T03:22:09.954Z,0
2016-12-29T03:23:09.568Z,0
2016-12-29T03:24:10.383Z,0
2016-12-29T03:25:10.395Z,0
2016-12-29T03:26:09.629Z,0
2016-12-29T03:27:09.635Z,0
2016-12-29T03:28:10.024Z,0
2016-12-29T03:29:09.240Z,0
2016-12-29T03:30:10.449Z,0
2016-12-29T03:31:10.074Z,0
2016-12-29T03:32:09.681Z,0
2016-12-29T03:33:10.884Z,0
2016-12-29T03:34:09.712Z,0
2016-12-29T03:35:10.531Z,0
2016-12-29T03:36:10.151Z,0
2016-12-29T03:37:10.532Z,0
2016-12-29T03:38:09.751Z,0
2016-12-29T03:39:10.160Z,0
2016-12-29T03:40:10.604Z,0
2016-12-29T03:41:10.584Z,0
2016-12-29T03:42:10.197Z,0
2016-12-29T03:43:10.214Z,0
2016-12-29T03:44:09.450Z,0
2016-12-29T03:45:10.635Z,0
2016-12-29T03:46:10.648Z,0
2016-12-29T03:47:10.656Z,0
2016-12-29T03:48:10.276Z,0
2016-12-29T03:49:10.281Z,0
2016-12-29T03:50:10.300Z,0
2016-12-29T03:51:10.708Z,0
2016-12-29T03:52:11.115Z,0
2016-12-29T03:53:09.928Z,0
2016-12-29T03:54:09.543Z,0
2016-12-29T03:55:09.957Z,0
2016-12-29T03:56:10.369Z,0
2016-12-29T03:57:09.605Z,0
2016-12-29T03:58:09.995Z,0
2016-12-29T03:59:11.199Z,0
2016-12-29T04:00:10.019Z,0
2016-12-29T04:01:09.631Z,0
2016-12-29T04:02:10.846Z,0
2016-12-29T04:03:10.457Z,0
2016-12-29T04:04:10.469Z,0
2016-12-29T04:05:10.078Z,0
2016-12-29T04:06:10.489Z,0
2016-12-29T04:07:10.901Z,0
2016-12-29T04:08:10.912Z,0
2016-12-29T04:09:10.949Z,0
2016-12-29T04:10:10.939Z,0
2016-12-29T04:11:10.152Z,0
2016-12-29T04:12:10.558Z,0
2016-12-29T04:13:09.777Z,0
2016-12-29T04:14:10.993Z,0
2016-12-29T04:15:10.991Z,0
2016-12-29T04:16:10.604Z,0
2016-12-29T04:17:10.222Z,0
2016-12-29T04:18:09.835Z,0
2016-12-29T04:19:10.278Z,0
2016-12-29T04:20:10.659Z,0
2016-12-29T04:21:10.273Z,0
2016-12-29T04:22:10.279Z,0
2016-12-29T04:23:10.701Z,0
2016-12-29T04:24:11.107Z,0
2016-12-29T04:25:11.115Z,0
2016-12-29T04:26:10.732Z,0
2016-12-29T04:27:11.138Z,0
2016-12-29T04:28:11.150Z,0
2016-12-29T04:29:10.771Z,0
2016-12-29T04:30:10.782Z,0
2016-12-29T04:31:11.189Z,0
2016-12-29T04:32:10.796Z,0
2016-12-29T04:33:11.204Z,0
2016-12-29T04:34:11.236Z,0
2016-12-29T04:35:10.843Z,0
2016-12-29T04:36:10.867Z,0
2016-12-29T04:37:10.460Z,0
2016-12-29T04:38:10.871Z,0
2016-12-29T04:39:11.282Z,0
2016-12-29T04:40:11.301Z,0
2016-12-29T04:41:10.510Z,0
2016-12-29T04:42:11.326Z,0
2016-12-29T04:43:10.536Z,0
2016-12-29T04:44:10.141Z,0
2016-12-29T04:45:11.370Z,0
2016-12-29T04:46:10.575Z,0
2016-12-29T04:47:10.184Z,0
2016-12-29T04:48:11.388Z,0
2016-12-29T04:49:11.402Z,0
2016-12-29T04:50:10.621Z,0
2016-12-29T04:51:11.021Z,0
2016-12-29T04:52:11.056Z,0
2016-12-29T04:53:11.056Z,0
2016-12-29T04:54:11.078Z,0
2016-12-29T04:55:11.075Z,0
2016-12-29T04:56:11.091Z,0
2016-12-29T04:57:10.704Z,0
2016-12-29T04:58:10.712Z,0
2016-12-29T04:59:11.522Z,0
2016-12-29T05:00:11.565Z,0
2016-12-29T05:01:10.748Z,0
2016-12-29T05:02:11.154Z,0
2016-12-29T05:03:10.387Z,0
2016-12-29T05:04:11.989Z,0
2016-12-29T05:05:11.253Z,0
2016-12-29T05:06:11.242Z,0
2016-12-29T05:07:10.819Z,0
2016-12-29T05:08:12.032Z,0
2016-12-29T05:09:11.242Z,0
2016-12-29T05:10:12.073Z,0
2016-12-29T05:11:10.868Z,0
2016-12-29T05:12:11.290Z,0
2016-12-29T05:13:10.881Z,0
2016-12-29T05:14:11.300Z,0
2016-12-29T05:15:11.312Z,0
2016-12-29T05:16:11.367Z,0
2016-12-29T05:17:10.930Z,0
2016-12-29T05:18:11.344Z,0
2016-12-29T05:19:11.358Z,0
2016-12-29T05:20:10.988Z,0
2016-12-29T05:21:11.432Z,0
2016-12-29T05:22:11.410Z,0
2016-12-29T05:23:11.433Z,0
2016-12-29T05:24:11.412Z,0
2016-12-29T05:25:12.226Z,0
2016-12-29T05:26:11.067Z,0
2016-12-29T05:27:11.855Z,0
2016-12-29T05:28:11.860Z,0
2016-12-29T05:29:11.471Z,0
2016-12-29T05:30:11.501Z,0
2016-12-29T05:31:11.500Z,0
2016-12-29T05:32:12.310Z,0
2016-12-29T05:33:11.519Z,0
2016-12-29T05:34:11.133Z,0
2016-12-29T05:35:10.775Z,0
2016-12-29T05:36:10.757Z,0
2016-12-29T05:37:11.168Z,0
2016-12-29T05:38:11.234Z,0
2016-12-29T05:39:11.194Z,0
2016-12-29T05:40:11.628Z,0
2016-12-29T05:41:12.016Z,0
2016-12-29T05:42:11.632Z,0
2016-12-29T05:43:11.239Z,0
2016-12-29T05:44:11.648Z,0
2016-12-29T05:45:11.268Z,0
2016-12-29T05:46:12.073Z,0
2016-12-29T05:47:12.087Z,0
2016-12-29T05:48:11.704Z,0
2016-12-29T05:49:11.328Z,0
2016-12-29T05:50:11.734Z,0
2016-12-29T05:51:12.533Z,0
2016-12-29T05:52:12.544Z,0
2016-12-29T05:53:12.154Z,0
2016-12-29T05:54:11.764Z,0
2016-12-29T05:55:11.785Z,0
2016-12-29T05:56:11.798Z,0
2016-12-29T05:57:11.806Z,0
2016-12-29T05:58:12.606Z,0
2016-12-29T05:59:12.633Z,0
2016-12-29T06:00:12.237Z,0
2016-12-29T06:01:11.450Z,0
2016-12-29T06:02:12.673Z,0
2016-12-29T06:03:11.475Z,0
2016-12-29T06:04:11.516Z,0
2016-12-29T06:05:11.894Z,0
2016-12-29T06:06:11.905Z,0
2016-12-29T06:07:12.312Z,0
2016-12-29T06:08:11.945Z,0
2016-12-29T06:09:11.936Z,0
2016-12-29T06:10:11.555Z,0
2016-12-29T06:11:11.567Z,0
2016-12-29T06:12:11.575Z,0
2016-12-29T06:13:11.980Z,0
2016-12-29T06:14:11.999Z,0
2016-12-29T06:15:11.215Z,0
2016-12-29T06:16:11.620Z,0
2016-12-29T06:17:12.052Z,0
2016-12-29T06:18:11.665Z,0
2016-12-29T06:19:11.654Z,0
2016-12-29T06:20:11.672Z,0
2016-12-29T06:21:12.082Z,0
2016-12-29T06:22:11.692Z,0
2016-12-29T06:23:11.708Z,0
2016-12-29T06:24:12.519Z,0
2016-12-29T06:25:11.728Z,0
2016-12-29T06:26:12.137Z,0
2016-12-29T06:27:12.173Z,0
2016-12-29T06:28:12.967Z,0
2016-12-29T06:29:11.768Z,0
2016-12-29T06:30:12.180Z,0
2016-12-29T06:31:12.597Z,0
2016-12-29T06:32:12.202Z,0
2016-12-29T06:33:12.220Z,0
2016-12-29T06:34:12.623Z,0
2016-12-29T06:35:12.645Z,0
2016-12-29T06:36:11.860Z,0
2016-12-29T06:37:11.883Z,0
2016-12-29T06:38:12.674Z,0
2016-12-29T06:39:12.686Z,0
2016-12-29T06:40:11.900Z,0
2016-12-29T06:41:11.908Z,0
2016-12-29T06:42:12.312Z,0
2016-12-29T06:43:12.727Z,0
2016-12-29T06:44:12.775Z,0
2016-12-29T06:45:11.968Z,0
2016-12-29T06:46:12.787Z,0
2016-12-29T06:47:12.379Z,0
2016-12-29T06:48:11.992Z,0
2016-12-29T06:49:12.803Z,0
2016-12-29T06:50:12.412Z,0
2016-12-29T06:51:13.227Z,0
2016-12-29T06:52:12.436Z,0
2016-12-29T06:53:11.669Z,0
2016-12-29T06:54:12.494Z,0
2016-12-29T06:55:12.492Z,0
2016-12-29T06:56:12.081Z,0
2016-12-29T06:57:11.693Z,0
2016-12-29T06:58:12.511Z,0
2016-12-29T06:59:12.120Z,0
2016-12-29T07:00:12.928Z,0
2016-12-29T07:01:12.543Z,0
2016-12-29T07:02:12.959Z,0
2016-12-29T07:03:12.562Z,0
2016-12-29T07:04:13.393Z,0
2016-12-29T07:05:12.591Z,0
2016-12-29T07:06:12.208Z,0
2016-12-29T07:07:12.219Z,0
2016-12-29T07:08:12.233Z,0
2016-12-29T07:09:11.841Z,0
2016-12-29T07:10:12.652Z,0
2016-12-29T07:11:12.665Z,0
2016-12-29T07:12:12.700Z,0
2016-12-29T07:13:11.887Z,0
2016-12-29T07:14:13.103Z,0
2016-12-29T07:15:13.115Z,0
2016-12-29T07:16:13.120Z,0
2016-12-29T07:17:12.736Z,0
2016-12-29T07:18:12.751Z,0
2016-12-29T07:19:12.364Z,0
2016-12-29T07:20:13.178Z,0
2016-12-29T07:21:12.404Z,0
2016-12-29T07:22:13.604Z,0
2016-12-29T07:23:12.810Z,0
2016-12-29T07:24:12.428Z,0
2016-12-29T07:25:12.435Z,0
2016-12-29T07:26:12.841Z,0
2016-12-29T07:27:13.691Z,0
2016-12-29T07:28:13.267Z,0
2016-12-29T07:29:12.889Z,0
2016-12-29T07:30:13.300Z,0
2016-12-29T07:31:12.910Z,0
2016-12-29T07:32:12.929Z,0
2016-12-29T07:33:12.934Z,0
2016-12-29T07:34:13.344Z,0
2016-12-29T07:35:12.958Z,0
2016-12-29T07:36:13.374Z,0
2016-12-29T07:37:12.186Z,0
2016-12-29T07:38:13.396Z,0
2016-12-29T07:39:13.029Z,0
2016-12-29T07:40:12.622Z,5
2016-12-29T07:41:13.032Z,5
2016-12-29T07:42:13.046Z,0
2016-12-29T07:43:13.081Z,0
2016-12-29T07:44:12.677Z,0
2016-12-29T07:45:13.513Z,5
2016-12-29T07:46:13.106Z,5
2016-12-29T07:47:12.713Z,5
2016-12-29T07:48:13.123Z,5
2016-12-29T07:49:13.137Z,5
2016-12-29T07:50:13.545Z,5
2016-12-29T07:51:12.772Z,5
2016-12-29T07:52:13.182Z,5
2016-12-29T07:53:12.786Z,5
2016-12-29T07:54:12.812Z,10
2016-12-29T07:55:13.227Z,10
2016-12-29T07:56:12.828Z,10
2016-12-29T07:57:13.238Z,10
2016-12-29T07:58:12.851Z,10
2016-12-29T07:59:13.703Z,15
2016-12-29T08:00:12.886Z,20
2016-12-29T08:01:13.694Z,20
2016-12-29T08:02:13.306Z,20
2016-12-29T08:03:13.326Z,20
2016-12-29T08:04:14.132Z,20
2016-12-29T08:05:13.344Z,20
2016-12-29T08:06:13.374Z,15
2016-12-29T08:07:13.770Z,20
2016-12-29T08:08:13.803Z,20
2016-12-29T08:09:13.410Z,15
2016-12-29T08:10:13.407Z,20
2016-12-29T08:11:13.818Z,15
2016-12-29T08:12:13.032Z,15
2016-12-29T08:13:12.650Z,10
2016-12-29T08:14:13.455Z,10
2016-12-29T08:15:13.481Z,10
2016-12-29T08:16:13.483Z,10
2016-12-29T08:17:13.107Z,10
2016-12-29T08:18:12.742Z,10
2016-12-29T08:19:13.557Z,10
2016-12-29T08:20:13.947Z,10
2016-12-29T08:21:14.356Z,10
2016-12-29T08:22:13.171Z,10
2016-12-29T08:23:12.779Z,10
2016-12-29T08:24:13.597Z,10
2016-12-29T08:25:13.211Z,10
2016-12-29T08:26:13.629Z,10
2016-12-29T08:27:13.234Z,10
2016-12-29T08:28:13.252Z,10
2016-12-29T08:29:14.458Z,10
2016-12-29T08:30:13.685Z,10
2016-12-29T08:31:14.103Z,10
2016-12-29T08:32:13.697Z,10
2016-12-29T08:33:13.320Z,10
2016-12-29T08:34:13.331Z,10
2016-12-29T08:35:14.141Z,10
2016-12-29T08:36:13.752Z,10
2016-12-29T08:37:13.767Z,10
2016-12-29T08:38:13.375Z,10
2016-12-29T08:39:14.191Z,10
2016-12-29T08:40:14.210Z,10
2016-12-29T08:41:14.625Z,10
2016-12-29T08:42:13.830Z,10
2016-12-29T08:43:13.059Z,10
2016-12-29T08:44:14.274Z,10
2016-12-29T08:45:14.297Z,10
2016-12-29T08:46:13.484Z,10
2016-12-29T08:47:14.307Z,10
2016-12-29T08:48:14.311Z,10
2016-12-29T08:49:13.925Z,10
2016-12-29T08:50:14.341Z,10
2016-12-29T08:51:13.562Z,10
2016-12-29T08:52:13.168Z,10
2016-12-29T08:53:14.773Z,15
2016-12-29T08:54:13.992Z,15
2016-12-29T08:55:14.002Z,15
2016-12-29T08:56:13.242Z,15
2016-12-29T08:57:13.656Z,15
2016-12-29T08:58:14.047Z,15
2016-12-29T08:59:14.056Z,15
2016-12-29T09:00:13.679Z,15
2016-12-29T09:01:14.118Z,15
2016-12-29T09:02:14.103Z,15
2016-12-29T09:03:14.515Z,15
2016-12-29T09:04:14.128Z,15
2016-12-29T09:05:14.938Z,15
2016-12-29T09:06:13.752Z,15
2016-12-29T09:07:14.968Z,15
2016-12-29T09:08:13.388Z,15
2016-12-29T09:09:14.196Z,15
2016-12-29T09:10:14.206Z,15
2016-12-29T09:11:14.242Z,15
2016-12-29T09:12:13.834Z,15
2016-12-29T09:13:13.850Z,15
2016-12-29T09:14:13.469Z,20
2016-12-29T09:15:14.677Z,20
2016-12-29T09:16:14.689Z,20
2016-12-29T09:17:14.305Z,20
2016-12-29T09:18:13.517Z,25
2016-12-29T09:19:13.935Z,25
2016-12-29T09:20:13.555Z,25
2016-12-29T09:21:14.767Z,125
2016-12-29T09:22:14.023Z,235
2016-12-29T09:23:13.988Z,275
2016-12-29T09:24:14.007Z,295
2016-12-29T09:25:14.818Z,405
2016-12-29T09:26:14.036Z,275
2016-12-29T09:27:14.446Z,130
2016-12-29T09:28:14.483Z,360
2016-12-29T09:29:15.280Z,495
2016-12-29T09:30:14.903Z,315
2016-12-29T09:31:14.511Z,125
2016-12-29T09:32:14.524Z,95
2016-12-29T09:33:14.138Z,205
2016-12-29T09:34:14.159Z,390
2016-12-29T09:35:14.572Z,370
2016-12-29T09:36:14.993Z,360
2016-12-29T09:37:14.618Z,300
2016-12-29T09:38:14.636Z,210
2016-12-29T09:39:14.635Z,125
2016-12-29T09:40:14.648Z,100
2016-12-29T09:41:14.667Z,180
2016-12-29T09:42:14.288Z,135
2016-12-29T09:43:14.302Z,190
2016-12-29T09:44:14.719Z,205
2016-12-29T09:45:15.130Z,280
2016-12-29T09:46:14.355Z,220
2016-12-29T09:47:14.374Z,165
2016-12-29T09:48:15.588Z,160
2016-12-29T09:49:14.805Z,170
2016-12-29T09:50:14.820Z,200
2016-12-29T09:51:14.444Z,240
2016-12-29T09:52:14.465Z,270
2016-12-29T09:53:14.481Z,270
2016-12-29T09:54:15.697Z,255
2016-12-29T09:55:14.119Z,265
2016-12-29T09:56:15.334Z,180
2016-12-29T09:57:14.557Z,165
2016-12-29T09:58:14.972Z,105
2016-12-29T09:59:15.391Z,190
2016-12-29T10:00:14.621Z,145
2016-12-29T10:01:15.432Z,135
2016-12-29T10:02:14.648Z,135
2016-12-29T10:03:15.466Z,105
2016-12-29T10:04:15.094Z,100
2016-12-29T10:05:15.509Z,120
2016-12-29T10:06:15.533Z,65
2016-12-29T10:07:14.754Z,90
2016-12-29T10:08:15.566Z,135
2016-12-29T10:09:14.787Z,65
2016-12-29T10:10:15.208Z,70
2016-12-29T10:11:15.224Z,65
2016-12-29T10:12:15.644Z,95
2016-12-29T10:13:15.266Z,60
2016-12-29T10:14:15.281Z,50
2016-12-29T10:15:16.106Z,55
2016-12-29T10:16:15.719Z,60
2016-12-29T10:17:14.550Z,145
2016-12-29T10:18:14.959Z,110
2016-12-29T10:19:15.375Z,130
2016-12-29T10:20:16.221Z,100
2016-12-29T10:21:16.224Z,130
2016-12-29T10:22:15.828Z,140
2016-12-29T10:23:15.851Z,145
2016-12-29T10:24:15.869Z,140
2016-12-29T10:25:15.097Z,105
2016-12-29T10:26:15.105Z,130
2016-12-29T10:27:15.929Z,60
2016-12-29T10:28:16.342Z,130
2016-12-29T10:29:15.188Z,120
2016-12-29T10:30:15.608Z,130
2016-12-29T10:31:15.211Z,135
2016-12-29T10:32:15.648Z,135
2016-12-29T10:33:15.241Z,155
2016-12-29T10:34:15.660Z,145
2016-12-29T10:35:14.886Z,135
2016-12-29T10:36:16.125Z,135
2016-12-29T10:37:16.112Z,140
2016-12-29T10:38:14.958Z,160
2016-12-29T10:39:15.753Z,195
2016-12-29T10:40:15.779Z,195
2016-12-29T10:41:16.201Z,200
2016-12-29T10:42:16.210Z,195
2016-12-29T10:43:15.436Z,200
2016-12-29T10:44:15.850Z,210
2016-12-29T10:45:16.670Z,195
2016-12-29T10:46:15.488Z,175
2016-12-29T10:47:16.358Z,155
2016-12-29T10:48:15.950Z,155
2016-12-29T10:49:15.175Z,180
2016-12-29T10:50:16.366Z,175
2016-12-29T10:51:15.212Z,160
2016-12-29T10:52:15.609Z,130
2016-12-29T10:53:16.538Z,115
2016-12-29T10:54:16.063Z,125
2016-12-29T10:55:16.059Z,130
2016-12-29T10:56:16.087Z,150
2016-12-29T10:57:16.524Z,135
2016-12-29T10:58:16.531Z,125
2016-12-29T10:59:16.153Z,120
2016-12-29T11:00:16.167Z,110
2016-12-29T11:01:16.594Z,90
2016-12-29T11:02:16.612Z,90
2016-12-29T11:03:15.824Z,85
2016-12-29T11:04:16.241Z,90
2016-12-29T11:05:15.869Z,85
2016-12-29T11:06:16.693Z,80
2016-12-29T11:07:16.312Z,75
2016-12-29T11:08:16.335Z,75
2016-12-29T11:09:16.344Z,75
2016-12-29T11:10:16.767Z,75
2016-12-29T11:11:16.776Z,75
2016-12-29T11:12:16.392Z,70
2016-12-29T11:13:15.616Z,70
2016-12-29T11:14:15.637Z,70
2016-12-29T11:15:16.453Z,70
2016-12-29T11:16:16.896Z,75
2016-12-29T11:17:17.306Z,70
2016-12-29T11:18:15.717Z,70
2016-12-29T11:19:16.529Z,70
2016-12-29T11:20:16.166Z,70
2016-12-29T11:21:16.171Z,70
2016-12-29T11:22:16.600Z,75
2016-12-29T11:23:15.818Z,70
2016-12-29T11:24:16.634Z,70
2016-12-29T11:25:17.056Z,70
2016-12-29T11:26:16.675Z,70
2016-12-29T11:27:16.290Z,70
2016-12-29T11:28:17.150Z,75
2016-12-29T11:29:15.930Z,70
2016-12-29T11:30:17.143Z,70
2016-12-29T11:31:16.774Z,70
2016-12-29T11:32:17.207Z,75
2016-12-29T11:33:16.804Z,70
2016-12-29T11:34:17.220Z,75
2016-12-29T11:35:16.842Z,70
2016-12-29T11:36:16.868Z,75
2016-12-29T11:37:16.492Z,75
2016-12-29T11:38:17.305Z,70
2016-12-29T11:39:17.318Z,70
2016-12-29T11:40:16.938Z,70
2016-12-29T11:41:16.566Z,70
2016-12-29T11:42:16.579Z,70
2016-12-29T11:43:17.005Z,70
2016-12-29T11:44:17.428Z,70
2016-12-29T11:45:17.431Z,70
2016-12-29T11:46:17.060Z,70
2016-12-29T11:47:17.076Z,70
2016-12-29T11:48:16.698Z,70
2016-12-29T11:49:17.117Z,70
2016-12-29T11:50:16.742Z,65
2016-12-29T11:51:17.152Z,70
2016-12-29T11:52:17.170Z,65
2016-12-29T11:53:16.795Z,65
2016-12-29T11:54:16.817Z,65
2016-12-29T11:55:17.234Z,70
2016-12-29T11:56:17.264Z,65
2016-12-29T11:57:16.877Z,65
2016-12-29T11:58:17.695Z,65
2016-12-29T11:59:18.110Z,65
2016-12-29T12:00:17.733Z,65
2016-12-29T12:01:17.753Z,65
2016-12-29T12:02:16.985Z,65
2016-12-29T12:03:17.391Z,65
2016-12-29T12:04:17.415Z,65
2016-12-29T12:05:18.236Z,65
2016-12-29T12:06:17.880Z,60
2016-12-29T12:07:17.476Z,65
2016-12-29T12:08:17.895Z,60
2016-12-29T12:09:18.313Z,65
2016-12-29T12:10:17.562Z,65
2016-12-29T12:11:17.582Z,60
2016-12-29T12:12:17.968Z,65
2016-12-29T12:13:17.592Z,65
2016-12-29T12:14:18.038Z,65
2016-12-29T12:15:17.634Z,60
2016-12-29T12:16:18.459Z,60
2016-12-29T12:17:17.298Z,60
2016-12-29T12:18:17.700Z,60
2016-12-29T12:19:18.118Z,60
2016-12-29T12:20:18.135Z,60
2016-12-29T12:21:17.365Z,60
2016-12-29T12:22:18.577Z,60
2016-12-29T12:23:17.000Z,65
2016-12-29T12:24:17.850Z,60
2016-12-29T12:25:17.651Z,60
2016-12-29T12:26:17.461Z,60
2016-12-29T12:27:17.880Z,60
2016-12-29T12:28:17.939Z,65
2016-12-29T12:29:18.720Z,60
2016-12-29T12:30:18.338Z,60
2016-12-29T12:31:18.367Z,60
2016-12-29T12:32:17.586Z,60
2016-12-29T12:33:17.606Z,60
2016-12-29T12:34:18.022Z,60
2016-12-29T12:35:18.854Z,60
2016-12-29T12:36:18.075Z,65
2016-12-29T12:37:18.891Z,60
2016-12-29T12:38:17.725Z,60
2016-12-29T12:39:18.130Z,60
2016-12-29T12:40:18.552Z,60
2016-12-29T12:41:17.772Z,55
2016-12-29T12:42:18.193Z,55
2016-12-29T12:43:17.812Z,55
2016-12-29T12:44:17.437Z,50
2016-12-29T12:45:18.644Z,45
2016-12-29T12:46:17.870Z,45
2016-12-29T12:47:17.499Z,50
2016-12-29T12:48:18.715Z,45
2016-12-29T12:49:18.738Z,50
2016-12-29T12:50:18.753Z,50
2016-12-29T12:51:18.378Z,50
2016-12-29T12:52:18.397Z,45
2016-12-29T12:53:18.466Z,45
2016-12-29T12:54:18.040Z,50
2016-12-29T12:55:18.466Z,45
2016-12-29T12:56:17.690Z,45
2016-12-29T12:57:18.521Z,45
2016-12-29T12:58:18.132Z,45
2016-12-29T12:59:18.147Z,40
2016-12-29T13:00:18.977Z,40
2016-12-29T13:01:18.189Z,35
2016-12-29T13:02:19.097Z,35
2016-12-29T13:03:19.436Z,30
2016-12-29T13:04:18.245Z,30
2016-12-29T13:05:18.669Z,30
2016-12-29T13:06:18.690Z,30
2016-12-29T13:07:18.707Z,35
2016-12-29T13:08:18.325Z,40
2016-12-29T13:09:18.357Z,40
2016-12-29T13:10:18.773Z,35
2016-12-29T13:11:18.391Z,35
2016-12-29T13:12:18.813Z,40
2016-12-29T13:13:19.629Z,40
2016-12-29T13:14:18.449Z,40
2016-12-29T13:15:19.272Z,40
2016-12-29T13:16:18.885Z,40
2016-12-29T13:17:18.515Z,40
2016-12-29T13:18:19.041Z,40
2016-12-29T13:19:18.556Z,40
2016-12-29T13:20:18.602Z,40
2016-12-29T13:21:19.393Z,40
2016-12-29T13:22:19.009Z,40
2016-12-29T13:23:18.229Z,40
2016-12-29T13:24:19.481Z,40
2016-12-29T13:25:19.464Z,40
2016-12-29T13:26:19.899Z,40
2016-12-29T13:27:19.109Z,40
2016-12-29T13:28:18.728Z,40
2016-12-29T13:29:19.149Z,35
2016-12-29T13:30:18.790Z,35
2016-12-29T13:31:18.794Z,35
2016-12-29T13:32:19.604Z,35
2016-12-29T13:33:19.249Z,35
2016-12-29T13:34:19.248Z,35
2016-12-29T13:35:19.266Z,35
2016-12-29T13:36:19.703Z,35
2016-12-29T13:37:19.706Z,35
2016-12-29T13:38:18.526Z,35
2016-12-29T13:39:19.349Z,35
2016-12-29T13:40:19.387Z,35
2016-12-29T13:41:18.984Z,35
2016-12-29T13:42:18.630Z,35
2016-12-29T13:43:19.423Z,35
2016-12-29T13:44:19.849Z,35
2016-12-29T13:45:19.088Z,35
2016-12-29T13:46:19.109Z,35
2016-12-29T13:47:19.133Z,35
2016-12-29T13:48:19.944Z,35
2016-12-29T13:49:19.544Z,30
2016-12-29T13:50:19.591Z,30
2016-12-29T13:51:19.590Z,30
2016-12-29T13:52:18.811Z,30
2016-12-29T13:53:19.621Z,30
2016-12-29T13:54:18.847Z,35
2016-12-29T13:55:18.894Z,35
2016-12-29T13:56:20.099Z,35
2016-12-29T13:57:20.104Z,35
2016-12-29T13:58:19.329Z,30
2016-12-29T13:59:18.953Z,30
2016-12-29T14:00:19.363Z,30
2016-12-29T14:01:20.197Z,30
2016-12-29T14:02:19.013Z,30
2016-12-29T14:03:19.432Z,30
2016-12-29T14:04:20.248Z,30
2016-12-29T14:05:19.869Z,30
2016-12-29T14:06:20.290Z,30
2016-12-29T14:07:19.504Z,30
2016-12-29T14:08:19.527Z,30
2016-12-29T14:09:20.349Z,30
2016-12-29T14:10:19.174Z,30
2016-12-29T14:11:20.387Z,30
2016-12-29T14:12:20.404Z,30
2016-12-29T14:13:19.233Z,30
2016-12-29T14:14:20.044Z,30
2016-12-29T14:15:20.471Z,30
2016-12-29T14:16:19.689Z,30
2016-12-29T14:17:20.538Z,25
2016-12-29T14:18:19.330Z,25
2016-12-29T14:19:20.941Z,25
2016-12-29T14:20:19.767Z,25
2016-12-29T14:21:19.788Z,25
2016-12-29T14:22:20.601Z,25
2016-12-29T14:23:20.223Z,25
2016-12-29T14:24:19.843Z,25
2016-12-29T14:25:19.865Z,20
2016-12-29T14:26:19.884Z,20
2016-12-29T14:27:20.309Z,15
2016-12-29T14:28:19.660Z,15
2016-12-29T14:29:20.394Z,10